TimeEDT,TemperatureF,Dew PointF,Humidity,Sea Level PressureIn,VisibilityMPH,Wind Direction,Wind SpeedMPH,Gust SpeedMPH,PrecipitationIn,Events,Conditions,WindDirDegrees,DateUTC
12:11 AM,33.8,30.2,87,30.12,10.0,SW,5.8,-,N/A,,Clear,220,2012-10-11 04:11:00
12:31 AM,33.8,30.2,87,30.12,10.0,SW,5.8,-,N/A,,Clear,220,2012-10-11 04:31:00
12:51 AM,33.8,28.4,81,30.12,10.0,SW,4.6,-,N/A,,Clear,230,2012-10-11 04:51:00
1:11 AM,32.0,28.4,87,30.12,10.0,SW,4.6,-,N/A,,Clear,230,2012-10-11 05:11:00
1:31 AM,32.0,28.4,87,30.13,10.0,SW,5.8,-,N/A,,Clear,230,2012-10-11 05:31:00
1:51 AM,32.0,28.4,87,30.13,10.0,SW,4.6,-,N/A,,Clear,230,2012-10-11 05:51:00
2:11 AM,32.0,28.4,87,30.12,10.0,SW,6.9,-,N/A,,Clear,220,2012-10-11 06:11:00
2:31 AM,32.0,30.2,93,30.13,10.0,SW,6.9,-,N/A,,Clear,220,2012-10-11 06:31:00
2:52 AM,32.0,28.4,87,30.13,10.0,SW,6.9,-,N/A,,Clear,220,2012-10-11 06:52:00
3:12 AM,32.0,28.4,87,30.13,10.0,SW,5.8,-,N/A,,Clear,220,2012-10-11 07:12:00
3:52 AM,32.0,30.2,93,30.12,10.0,SSW,5.8,-,N/A,,Clear,210,2012-10-11 07:52:00
4:12 AM,32.0,28.4,87,30.12,10.0,SSW,4.6,-,N/A,,Clear,200,2012-10-11 08:12:00
4:32 AM,32.0,30.2,93,30.11,10.0,South,4.6,-,N/A,,Clear,190,2012-10-11 08:32:00
4:52 AM,32.0,30.2,93,30.11,10.0,South,6.9,-,N/A,,Scattered Clouds,190,2012-10-11 08:52:00
5:12 AM,32.0,30.2,93,30.11,10.0,SSW,6.9,-,N/A,,Clear,210,2012-10-11 09:12:00
5:32 AM,32.0,30.2,93,30.12,10.0,South,5.8,-,N/A,,Clear,190,2012-10-11 09:32:00
5:52 AM,32.0,30.2,93,30.12,10.0,South,6.9,-,N/A,,Clear,190,2012-10-11 09:52:00
6:13 AM,33.8,30.2,87,30.12,10.0,South,6.9,-,N/A,,Mostly Cloudy,190,2012-10-11 10:13:00
6:33 AM,33.8,30.2,87,30.11,10.0,South,6.9,-,N/A,,Overcast,190,2012-10-11 10:33:00
6:53 AM,33.8,32.0,93,30.11,10.0,South,5.8,-,N/A,,Overcast,190,2012-10-11 10:53:00
7:13 AM,35.6,32.0,87,30.12,10.0,South,6.9,-,N/A,,Overcast,190,2012-10-11 11:13:00
7:33 AM,35.6,32.0,87,30.11,10.0,South,6.9,-,N/A,,Mostly Cloudy,190,2012-10-11 11:33:00
7:53 AM,35.6,32.0,87,30.09,10.0,South,9.2,-,N/A,,Scattered Clouds,190,2012-10-11 11:53:00
8:13 AM,35.6,32.0,87,30.09,10.0,South,8.1,-,N/A,,Clear,190,2012-10-11 12:13:00
8:33 AM,37.4,32.0,81,30.09,10.0,South,9.2,-,N/A,,Clear,180,2012-10-11 12:33:00
8:53 AM,39.2,32.0,75,30.09,10.0,SSW,8.1,-,N/A,,Clear,200,2012-10-11 12:53:00
9:13 AM,41.0,32.0,70,30.09,10.0,SSW,15.0,18.4,N/A,,Scattered Clouds,210,2012-10-11 13:13:00
9:34 AM,41.0,32.0,70,30.08,10.0,SSW,16.1,20.7,N/A,,Mostly Cloudy,210,2012-10-11 13:34:00
9:54 AM,42.8,32.0,66,30.07,10.0,SSW,12.7,21.9,N/A,,Scattered Clouds,200,2012-10-11 13:54:00
10:14 AM,44.6,32.0,61,30.06,10.0,SSW,12.7,-,N/A,,Mostly Cloudy,210,2012-10-11 14:14:00
10:34 AM,46.4,32.0,57,30.05,10.0,SSW,18.4,26.5,N/A,,Overcast,210,2012-10-11 14:34:00
10:54 AM,46.4,32.0,57,30.04,10.0,SW,17.3,-,N/A,,Overcast,220,2012-10-11 14:54:00
11:14 AM,48.2,32.0,54,30.03,10.0,SW,16.1,27.6,N/A,,Overcast,220,2012-10-11 15:14:00
11:29 AM,50.0,32.0,50,30.01,10.0,SSW,23.0,31.1,N/A,,Overcast,210,2012-10-11 15:29:00
11:49 AM,50.0,32.0,50,30.01,10.0,SSW,19.6,26.5,N/A,,Overcast,210,2012-10-11 15:49:00
12:10 PM,51.8,32.0,47,30.01,10.0,SW,17.3,31.1,N/A,,Overcast,220,2012-10-11 16:10:00
12:30 PM,51.8,32.0,47,29.99,10.0,SW,20.7,29.9,N/A,,Overcast,220,2012-10-11 16:30:00
12:50 PM,55.4,32.0,41,29.97,10.0,SW,26.5,36.8,N/A,,Mostly Cloudy,220,2012-10-11 16:50:00
1:10 PM,55.4,32.0,41,29.95,10.0,SW,26.5,36.8,N/A,,Scattered Clouds,220,2012-10-11 17:10:00
1:50 PM,59.0,32.0,36,29.95,10.0,WSW,18.4,46.0,N/A,,Clear,240,2012-10-11 17:50:00
2:10 PM,60.8,32.0,34,29.94,10.0,SW,26.5,32.2,N/A,,Clear,230,2012-10-11 18:10:00
2:30 PM,60.8,32.0,34,29.94,10.0,WSW,25.3,33.4,N/A,,Scattered Clouds,250,2012-10-11 18:30:00
2:50 PM,60.8,32.0,34,29.94,10.0,SW,24.2,34.5,N/A,,Mostly Cloudy,230,2012-10-11 18:50:00
3:10 PM,60.8,32.0,34,29.94,10.0,WSW,19.6,33.4,N/A,,Mostly Cloudy,240,2012-10-11 19:10:00
3:31 PM,60.8,33.8,36,29.94,10.0,WSW,24.2,31.1,N/A,,Mostly Cloudy,240,2012-10-11 19:31:00
3:51 PM,60.8,33.8,36,29.95,10.0,WSW,16.1,31.1,N/A,,Overcast,250,2012-10-11 19:51:00
4:11 PM,59.0,35.6,42,29.96,10.0,West,18.4,27.6,N/A,,Overcast,270,2012-10-11 20:11:00
4:31 PM,57.2,35.6,44,29.98,10.0,West,23.0,31.1,N/A,,Overcast,270,2012-10-11 20:31:00
4:51 PM,55.4,41.0,58,29.99,10.0,NW,19.6,25.3,N/A,,Overcast,310,2012-10-11 20:51:00
5:11 PM,51.8,42.8,71,30.00,10.0,NW,15.0,24.2,N/A,,Light Drizzle,310,2012-10-11 21:11:00
6:11 PM,46.4,44.6,93,30.02,7.0,WNW,12.7,20.7,N/A,Rain,Rain,290,2012-10-11 22:11:00
6:32 PM,46.4,44.6,93,30.03,10.0,WNW,12.7,-,N/A,,Overcast,290,2012-10-11 22:32:00
6:52 PM,46.4,44.6,93,30.04,10.0,WNW,8.1,-,N/A,,Light Drizzle,290,2012-10-11 22:52:00
7:32 PM,44.6,42.8,93,30.06,10.0,NNW,12.7,20.7,N/A,,Light Drizzle,330,2012-10-11 23:32:00
7:52 PM,44.6,41.0,87,30.07,10.0,NW,10.4,-,N/A,,Light Drizzle,310,2012-10-11 23:52:00
8:12 PM,44.6,41.0,87,30.07,10.0,NW,9.2,-,N/A,,Overcast,310,2012-10-12 00:12:00
8:32 PM,44.6,41.0,87,30.09,10.0,NW,10.4,-,N/A,,Light Drizzle,320,2012-10-12 00:32:00
8:52 PM,44.6,41.0,87,30.10,10.0,NW,10.4,-,N/A,Rain,Rain,310,2012-10-12 00:52:00
9:12 PM,44.6,41.0,87,30.11,10.0,NW,9.2,-,N/A,Rain,Light Rain,310,2012-10-12 01:12:00
9:32 PM,44.6,39.2,81,30.11,10.0,NW,6.9,-,N/A,,Overcast,320,2012-10-12 01:32:00
9:53 PM,44.6,39.2,81,30.12,10.0,NW,6.9,-,N/A,,Overcast,310,2012-10-12 01:53:00
10:13 PM,44.6,39.2,81,30.14,10.0,WNW,6.9,-,N/A,,Overcast,300,2012-10-12 02:13:00
10:53 PM,42.8,37.4,81,30.15,10.0,NW,4.6,-,N/A,,Overcast,310,2012-10-12 02:53:00
11:13 PM,42.8,37.4,81,30.15,10.0,WNW,3.5,-,N/A,,Overcast,290,2012-10-12 03:13:00
11:33 PM,42.8,37.4,81,30.15,10.0,WNW,4.6,-,N/A,,Overcast,300,2012-10-12 03:33:00
11:53 PM,42.8,37.4,81,30.15,10.0,West,3.5,-,N/A,,Overcast,270,2012-10-12 03:53:00